National Weather Service Raw Text Product

Displaying AFOS PIL: TAFDSM Received: 2018-01-12 23:33 UTC


297 
FTUS43 KDMX 122333
TAFDSM
TAF
KDSM 122333Z 1300/1324 35010KT P6SM BKN090
     FM131500 34007KT P6SM FEW100 SCT250=